Terminal Aerodrome Forecast
Issued by NWS

Home | Current Version | Previous Version | Text Only | Print | Product List | Glossary On
Versions: 1 2 3 4 5 6 7 8 9 10 11 12 13 14 15 16 17 18 19 20 21 22
000
FTAK31 PANC 241151
TAFAVD
TAF
PAVD 241151Z 2412/2512 VRB03KT P6SM SCT100 BKN200
     FM242300 VRB03KT 2SM -SN OVC015
     FM250400 07007KT 5SM -SHSN BKN020 BKN060
     FM250700 06012G18KT P6SM SCT030
      AMD LTD TO CLD VIS AND WIND=

USA.gov is the U.S. government's official web portal to all federal, state and local government web resources and services.